sensor_id;sensor_type;location;lat;lon;timestamp;P1;durP1;ratioP1;P2;durP2;ratioP2
39044;SDS011;52192;52.002;5.956;2023-07-31T00:00:53;0.45;;;0.40;;
39044;SDS011;52192;52.002;5.956;2023-07-31T00:03:19;0.20;;;0.20;;
39044;SDS011;52192;52.002;5.956;2023-07-31T00:05:44;0.30;;;0.30;;
39044;SDS011;52192;52.002;5.956;2023-07-31T00:08:10;0.52;;;0.52;;
39044;SDS011;52192;52.002;5.956;2023-07-31T00:10:36;0.30;;;0.30;;
39044;SDS011;52192;52.002;5.956;2023-07-31T00:13:02;0.52;;;0.52;;
39044;SDS011;52192;52.002;5.956;2023-07-31T00:15:27;0.68;;;0.40;;
39044;SDS011;52192;52.002;5.956;2023-07-31T00:17:53;0.95;;;0.47;;
39044;SDS011;52192;52.002;5.956;2023-07-31T00:20:19;0.30;;;0.30;;
39044;SDS011;52192;52.002;5.956;2023-07-31T00:22:45;0.82;;;0.47;;
39044;SDS011;52192;52.002;5.956;2023-07-31T00:25:10;0.20;;;0.20;;
39044;SDS011;52192;52.002;5.956;2023-07-31T00:27:36;0.93;;;0.50;;
39044;SDS011;52192;52.002;5.956;2023-07-31T00:30:02;0.55;;;0.40;;
39044;SDS011;52192;52.002;5.956;2023-07-31T00:32:28;0.65;;;0.60;;
39044;SDS011;52192;52.002;5.956;2023-07-31T00:34:53;0.70;;;0.40;;
39044;SDS011;52192;52.002;5.956;2023-07-31T00:37:19;0.47;;;0.40;;
39044;SDS011;52192;52.002;5.956;2023-07-31T00:39:45;0.40;;;0.40;;
39044;SDS011;52192;52.002;5.956;2023-07-31T00:42:10;1.40;;;0.95;;
39044;SDS011;52192;52.002;5.956;2023-07-31T00:44:36;0.32;;;0.32;;
39044;SDS011;52192;52.002;5.956;2023-07-31T00:47:02;0.30;;;0.30;;
39044;SDS011;52192;52.002;5.956;2023-07-31T00:49:28;0.57;;;0.57;;
39044;SDS011;52192;52.002;5.956;2023-07-31T00:51:54;0.70;;;0.40;;
39044;SDS011;52192;52.002;5.956;2023-07-31T00:54:22;0.40;;;0.40;;
39044;SDS011;52192;52.002;5.956;2023-07-31T00:56:48;0.80;;;0.60;;
39044;SDS011;52192;52.002;5.956;2023-07-31T00:59:17;1.73;;;1.02;;
39044;SDS011;52192;52.002;5.956;2023-07-31T01:01:43;0.70;;;0.70;;
39044;SDS011;52192;52.002;5.956;2023-07-31T01:04:10;0.50;;;0.50;;
39044;SDS011;52192;52.002;5.956;2023-07-31T01:06:47;1.05;;;0.85;;
39044;SDS011;52192;52.002;5.956;2023-07-31T01:12:02;3.88;;;1.67;;
39044;SDS011;52192;52.002;5.956;2023-07-31T01:14:28;7.78;;;2.20;;
39044;SDS011;52192;52.002;5.956;2023-07-31T01:16:54;3.38;;;1.58;;
39044;SDS011;52192;52.002;5.956;2023-07-31T01:19:24;4.90;;;2.40;;
39044;SDS011;52192;52.002;5.956;2023-07-31T01:24:28;3.80;;;2.42;;
39044;SDS011;52192;52.002;5.956;2023-07-31T01:26:56;8.35;;;3.20;;
39044;SDS011;52192;52.002;5.956;2023-07-31T01:29:38;9.57;;;3.75;;
39044;SDS011;52192;52.002;5.956;2023-07-31T01:32:16;6.25;;;3.03;;
39044;SDS011;52192;52.002;5.956;2023-07-31T01:34:44;6.07;;;2.67;;
39044;SDS011;52192;52.002;5.956;2023-07-31T01:37:10;5.07;;;2.70;;
39044;SDS011;52192;52.002;5.956;2023-07-31T01:39:36;6.28;;;2.75;;
39044;SDS011;52192;52.002;5.956;2023-07-31T01:42:01;4.82;;;2.17;;
39044;SDS011;52192;52.002;5.956;2023-07-31T01:44:27;4.10;;;2.45;;
39044;SDS011;52192;52.002;5.956;2023-07-31T01:46:53;6.65;;;2.92;;
39044;SDS011;52192;52.002;5.956;2023-07-31T01:49:19;7.05;;;4.10;;
39044;SDS011;52192;52.002;5.956;2023-07-31T01:51:44;4.60;;;2.70;;
39044;SDS011;52192;52.002;5.956;2023-07-31T01:54:10;3.65;;;2.00;;
39044;SDS011;52192;52.002;5.956;2023-07-31T01:56:36;4.20;;;2.58;;
39044;SDS011;52192;52.002;5.956;2023-07-31T01:59:01;4.75;;;2.40;;
39044;SDS011;52192;52.002;5.956;2023-07-31T02:01:27;8.38;;;2.25;;
39044;SDS011;52192;52.002;5.956;2023-07-31T02:03:53;5.68;;;2.38;;
39044;SDS011;52192;52.002;5.956;2023-07-31T02:06:19;4.72;;;2.55;;
39044;SDS011;52192;52.002;5.956;2023-07-31T02:08:44;8.27;;;2.63;;
39044;SDS011;52192;52.002;5.956;2023-07-31T02:11:10;4.82;;;2.60;;
39044;SDS011;52192;52.002;5.956;2023-07-31T02:13:36;5.15;;;2.20;;
39044;SDS011;52192;52.002;5.956;2023-07-31T02:16:01;2.88;;;1.92;;
39044;SDS011;52192;52.002;5.956;2023-07-31T02:18:27;8.85;;;2.67;;
39044;SDS011;52192;52.002;5.956;2023-07-31T02:20:53;6.40;;;2.65;;
39044;SDS011;52192;52.002;5.956;2023-07-31T02:23:18;2.92;;;1.52;;
39044;SDS011;52192;52.002;5.956;2023-07-31T02:25:45;3.75;;;2.38;;
39044;SDS011;52192;52.002;5.956;2023-07-31T02:28:11;4.93;;;2.75;;
39044;SDS011;52192;52.002;5.956;2023-07-31T02:30:37;5.05;;;2.35;;
39044;SDS011;52192;52.002;5.956;2023-07-31T02:33:03;6.05;;;2.08;;
39044;SDS011;52192;52.002;5.956;2023-07-31T02:35:29;6.95;;;2.88;;
39044;SDS011;52192;52.002;5.956;2023-07-31T02:37:55;3.80;;;2.08;;
39044;SDS011;52192;52.002;5.956;2023-07-31T02:40:20;3.05;;;1.85;;
39044;SDS011;52192;52.002;5.956;2023-07-31T02:42:46;6.93;;;2.55;;
39044;SDS011;52192;52.002;5.956;2023-07-31T02:45:12;4.40;;;1.90;;
39044;SDS011;52192;52.002;5.956;2023-07-31T02:47:38;6.93;;;2.58;;
39044;SDS011;52192;52.002;5.956;2023-07-31T02:50:03;6.50;;;1.90;;
39044;SDS011;52192;52.002;5.956;2023-07-31T02:52:29;6.70;;;1.92;;
39044;SDS011;52192;52.002;5.956;2023-07-31T02:54:55;6.22;;;2.20;;
39044;SDS011;52192;52.002;5.956;2023-07-31T02:57:21;4.82;;;2.67;;
39044;SDS011;52192;52.002;5.956;2023-07-31T02:59:47;4.18;;;2.40;;
39044;SDS011;52192;52.002;5.956;2023-07-31T03:02:13;4.50;;;2.25;;
39044;SDS011;52192;52.002;5.956;2023-07-31T03:04:39;6.85;;;2.25;;
39044;SDS011;52192;52.002;5.956;2023-07-31T03:07:05;6.18;;;2.50;;
39044;SDS011;52192;52.002;5.956;2023-07-31T03:09:31;6.30;;;2.13;;
39044;SDS011;52192;52.002;5.956;2023-07-31T03:11:56;2.53;;;1.65;;
39044;SDS011;52192;52.002;5.956;2023-07-31T03:14:22;6.40;;;2.33;;
39044;SDS011;52192;52.002;5.956;2023-07-31T03:16:48;5.35;;;1.75;;
39044;SDS011;52192;52.002;5.956;2023-07-31T03:19:14;3.88;;;2.35;;
39044;SDS011;52192;52.002;5.956;2023-07-31T03:21:39;7.68;;;1.92;;
39044;SDS011;52192;52.002;5.956;2023-07-31T03:24:05;4.35;;;2.80;;
39044;SDS011;52192;52.002;5.956;2023-07-31T03:26:31;4.72;;;2.67;;
39044;SDS011;52192;52.002;5.956;2023-07-31T03:28:57;6.25;;;2.95;;
39044;SDS011;52192;52.002;5.956;2023-07-31T03:31:23;5.13;;;1.77;;
39044;SDS011;52192;52.002;5.956;2023-07-31T03:33:49;11.07;;;3.03;;
39044;SDS011;52192;52.002;5.956;2023-07-31T03:36:14;9.07;;;3.15;;
39044;SDS011;52192;52.002;5.956;2023-07-31T03:38:40;6.80;;;2.70;;
39044;SDS011;52192;52.002;5.956;2023-07-31T03:41:06;4.70;;;2.50;;
39044;SDS011;52192;52.002;5.956;2023-07-31T03:43:31;4.63;;;2.85;;
39044;SDS011;52192;52.002;5.956;2023-07-31T03:46:00;7.68;;;2.13;;
39044;SDS011;52192;52.002;5.956;2023-07-31T03:48:26;4.78;;;2.55;;
39044;SDS011;52192;52.002;5.956;2023-07-31T03:50:52;5.18;;;2.05;;
39044;SDS011;52192;52.002;5.956;2023-07-31T03:53:18;3.92;;;2.40;;
39044;SDS011;52192;52.002;5.956;2023-07-31T03:55:43;4.60;;;2.17;;
39044;SDS011;52192;52.002;5.956;2023-07-31T03:58:09;4.13;;;1.77;;
39044;SDS011;52192;52.002;5.956;2023-07-31T04:00:34;4.38;;;1.77;;
39044;SDS011;52192;52.002;5.956;2023-07-31T04:03:00;3.65;;;2.50;;
39044;SDS011;52192;52.002;5.956;2023-07-31T04:05:26;4.45;;;2.03;;
39044;SDS011;52192;52.002;5.956;2023-07-31T04:07:51;5.25;;;2.80;;
39044;SDS011;52192;52.002;5.956;2023-07-31T04:10:17;4.47;;;2.30;;
39044;SDS011;52192;52.002;5.956;2023-07-31T04:12:43;2.17;;;1.42;;
39044;SDS011;52192;52.002;5.956;2023-07-31T04:15:08;3.67;;;1.63;;
39044;SDS011;52192;52.002;5.956;2023-07-31T04:17:34;3.92;;;2.45;;
39044;SDS011;52192;52.002;5.956;2023-07-31T04:20:00;4.10;;;1.60;;
39044;SDS011;52192;52.002;5.956;2023-07-31T04:22:26;4.38;;;2.45;;
39044;SDS011;52192;52.002;5.956;2023-07-31T04:24:52;8.90;;;3.03;;
39044;SDS011;52192;52.002;5.956;2023-07-31T04:27:17;8.57;;;2.45;;
39044;SDS011;52192;52.002;5.956;2023-07-31T04:29:43;9.88;;;2.92;;
39044;SDS011;52192;52.002;5.956;2023-07-31T04:32:11;4.38;;;2.50;;
39044;SDS011;52192;52.002;5.956;2023-07-31T04:34:36;2.20;;;1.50;;
39044;SDS011;52192;52.002;5.956;2023-07-31T04:37:02;9.05;;;2.22;;
39044;SDS011;52192;52.002;5.956;2023-07-31T04:39:28;5.97;;;2.00;;
39044;SDS011;52192;52.002;5.956;2023-07-31T04:41:54;3.65;;;1.73;;
39044;SDS011;52192;52.002;5.956;2023-07-31T04:44:19;4.47;;;2.33;;
39044;SDS011;52192;52.002;5.956;2023-07-31T04:46:45;4.60;;;2.28;;
39044;SDS011;52192;52.002;5.956;2023-07-31T04:49:11;4.45;;;2.42;;
39044;SDS011;52192;52.002;5.956;2023-07-31T04:51:36;4.22;;;1.75;;
39044;SDS011;52192;52.002;5.956;2023-07-31T04:54:02;4.32;;;2.20;;
39044;SDS011;52192;52.002;5.956;2023-07-31T04:56:28;4.50;;;1.92;;
39044;SDS011;52192;52.002;5.956;2023-07-31T04:58:53;3.40;;;1.60;;
39044;SDS011;52192;52.002;5.956;2023-07-31T05:01:20;10.23;;;2.55;;
39044;SDS011;52192;52.002;5.956;2023-07-31T05:03:45;3.17;;;1.90;;
39044;SDS011;52192;52.002;5.956;2023-07-31T05:06:11;6.97;;;2.40;;
39044;SDS011;52192;52.002;5.956;2023-07-31T05:08:38;3.25;;;2.10;;
39044;SDS011;52192;52.002;5.956;2023-07-31T05:11:04;4.68;;;2.10;;
39044;SDS011;52192;52.002;5.956;2023-07-31T05:13:30;9.02;;;2.70;;
39044;SDS011;52192;52.002;5.956;2023-07-31T05:15:55;5.47;;;2.38;;
39044;SDS011;52192;52.002;5.956;2023-07-31T05:18:21;7.68;;;1.88;;
39044;SDS011;52192;52.002;5.956;2023-07-31T05:20:46;5.53;;;2.10;;
39044;SDS011;52192;52.002;5.956;2023-07-31T05:23:12;2.88;;;1.95;;
39044;SDS011;52192;52.002;5.956;2023-07-31T05:25:38;3.63;;;1.88;;
39044;SDS011;52192;52.002;5.956;2023-07-31T05:28:03;5.28;;;2.30;;
39044;SDS011;52192;52.002;5.956;2023-07-31T05:30:30;6.32;;;1.90;;
39044;SDS011;52192;52.002;5.956;2023-07-31T05:32:56;3.15;;;1.70;;
39044;SDS011;52192;52.002;5.956;2023-07-31T05:35:22;3.65;;;1.67;;
39044;SDS011;52192;52.002;5.956;2023-07-31T05:37:47;6.53;;;2.40;;
39044;SDS011;52192;52.002;5.956;2023-07-31T05:40:13;2.58;;;1.60;;
39044;SDS011;52192;52.002;5.956;2023-07-31T05:42:39;3.78;;;2.00;;
39044;SDS011;52192;52.002;5.956;2023-07-31T05:45:06;3.03;;;2.15;;
39044;SDS011;52192;52.002;5.956;2023-07-31T05:47:32;2.08;;;1.10;;
39044;SDS011;52192;52.002;5.956;2023-07-31T05:49:58;1.95;;;1.25;;
39044;SDS011;52192;52.002;5.956;2023-07-31T05:52:24;4.55;;;1.48;;
39044;SDS011;52192;52.002;5.956;2023-07-31T05:54:50;2.55;;;1.83;;
39044;SDS011;52192;52.002;5.956;2023-07-31T05:57:15;4.13;;;1.80;;
39044;SDS011;52192;52.002;5.956;2023-07-31T05:59:41;2.95;;;1.65;;
39044;SDS011;52192;52.002;5.956;2023-07-31T06:02:07;2.53;;;1.40;;
39044;SDS011;52192;52.002;5.956;2023-07-31T06:04:32;2.67;;;1.77;;
39044;SDS011;52192;52.002;5.956;2023-07-31T06:06:58;4.13;;;2.33;;
39044;SDS011;52192;52.002;5.956;2023-07-31T06:09:25;2.90;;;1.55;;
39044;SDS011;52192;52.002;5.956;2023-07-31T06:11:51;2.40;;;1.50;;
39044;SDS011;52192;52.002;5.956;2023-07-31T06:14:17;1.60;;;1.13;;
39044;SDS011;52192;52.002;5.956;2023-07-31T06:16:43;6.60;;;2.13;;
39044;SDS011;52192;52.002;5.956;2023-07-31T06:19:09;4.45;;;2.20;;
39044;SDS011;52192;52.002;5.956;2023-07-31T06:21:35;2.65;;;1.52;;
39044;SDS011;52192;52.002;5.956;2023-07-31T06:24:05;3.50;;;1.70;;
39044;SDS011;52192;52.002;5.956;2023-07-31T06:26:31;2.42;;;1.60;;
39044;SDS011;52192;52.002;5.956;2023-07-31T06:28:56;2.20;;;1.02;;
39044;SDS011;52192;52.002;5.956;2023-07-31T06:31:22;4.00;;;1.70;;
39044;SDS011;52192;52.002;5.956;2023-07-31T06:33:51;2.28;;;1.48;;
39044;SDS011;52192;52.002;5.956;2023-07-31T06:36:17;2.35;;;1.30;;
39044;SDS011;52192;52.002;5.956;2023-07-31T06:38:43;5.00;;;1.85;;
39044;SDS011;52192;52.002;5.956;2023-07-31T06:41:08;1.77;;;1.35;;
39044;SDS011;52192;52.002;5.956;2023-07-31T06:43:35;5.65;;;1.30;;
39044;SDS011;52192;52.002;5.956;2023-07-31T06:46:07;2.50;;;1.92;;
39044;SDS011;52192;52.002;5.956;2023-07-31T06:51:00;1.40;;;1.20;;
39044;SDS011;52192;52.002;5.956;2023-07-31T06:53:26;1.92;;;1.00;;
39044;SDS011;52192;52.002;5.956;2023-07-31T06:55:52;2.30;;;1.02;;
39044;SDS011;52192;52.002;5.956;2023-07-31T06:58:17;1.77;;;1.20;;
39044;SDS011;52192;52.002;5.956;2023-07-31T07:00:43;6.57;;;1.42;;
39044;SDS011;52192;52.002;5.956;2023-07-31T07:03:09;2.13;;;1.25;;
39044;SDS011;52192;52.002;5.956;2023-07-31T07:05:35;1.35;;;0.80;;
39044;SDS011;52192;52.002;5.956;2023-07-31T07:08:00;3.72;;;1.20;;
39044;SDS011;52192;52.002;5.956;2023-07-31T07:10:26;6.35;;;1.17;;
39044;SDS011;52192;52.002;5.956;2023-07-31T07:12:52;2.22;;;1.30;;
39044;SDS011;52192;52.002;5.956;2023-07-31T07:15:20;1.83;;;1.38;;
39044;SDS011;52192;52.002;5.956;2023-07-31T07:17:46;2.67;;;0.90;;
39044;SDS011;52192;52.002;5.956;2023-07-31T07:20:11;2.00;;;0.95;;
39044;SDS011;52192;52.002;5.956;2023-07-31T07:22:37;1.45;;;0.95;;
39044;SDS011;52192;52.002;5.956;2023-07-31T07:25:03;1.00;;;0.90;;
39044;SDS011;52192;52.002;5.956;2023-07-31T07:27:29;1.05;;;0.60;;
39044;SDS011;52192;52.002;5.956;2023-07-31T07:29:55;0.85;;;0.60;;
39044;SDS011;52192;52.002;5.956;2023-07-31T07:32:21;1.05;;;0.77;;
39044;SDS011;52192;52.002;5.956;2023-07-31T07:34:47;0.73;;;0.50;;
39044;SDS011;52192;52.002;5.956;2023-07-31T07:37:13;0.60;;;0.50;;
39044;SDS011;52192;52.002;5.956;2023-07-31T07:39:39;0.40;;;0.40;;
39044;SDS011;52192;52.002;5.956;2023-07-31T07:42:06;1.40;;;0.50;;
39044;SDS011;52192;52.002;5.956;2023-07-31T07:44:31;3.15;;;0.57;;
39044;SDS011;52192;52.002;5.956;2023-07-31T07:46:57;0.52;;;0.50;;
39044;SDS011;52192;52.002;5.956;2023-07-31T07:49:22;0.47;;;0.47;;
39044;SDS011;52192;52.002;5.956;2023-07-31T07:51:48;0.98;;;0.55;;
39044;SDS011;52192;52.002;5.956;2023-07-31T07:54:14;0.93;;;0.40;;
39044;SDS011;52192;52.002;5.956;2023-07-31T07:56:41;0.60;;;0.30;;
39044;SDS011;52192;52.002;5.956;2023-07-31T07:59:07;0.50;;;0.50;;
39044;SDS011;52192;52.002;5.956;2023-07-31T08:01:33;1.58;;;0.47;;
39044;SDS011;52192;52.002;5.956;2023-07-31T08:03:58;0.30;;;0.30;;
39044;SDS011;52192;52.002;5.956;2023-07-31T08:06:24;0.30;;;0.30;;
39044;SDS011;52192;52.002;5.956;2023-07-31T08:08:50;0.20;;;0.20;;
39044;SDS011;52192;52.002;5.956;2023-07-31T08:11:16;0.52;;;0.52;;
39044;SDS011;52192;52.002;5.956;2023-07-31T08:13:41;0.40;;;0.40;;
39044;SDS011;52192;52.002;5.956;2023-07-31T08:16:07;0.93;;;0.50;;
39044;SDS011;52192;52.002;5.956;2023-07-31T08:18:33;2.25;;;0.75;;
39044;SDS011;52192;52.002;5.956;2023-07-31T08:20:59;0.65;;;0.40;;
39044;SDS011;52192;52.002;5.956;2023-07-31T08:23:26;0.98;;;0.60;;
39044;SDS011;52192;52.002;5.956;2023-07-31T08:25:52;0.50;;;0.50;;
39044;SDS011;52192;52.002;5.956;2023-07-31T08:28:17;0.68;;;0.65;;
39044;SDS011;52192;52.002;5.956;2023-07-31T08:30:43;0.52;;;0.43;;
39044;SDS011;52192;52.002;5.956;2023-07-31T08:33:08;0.95;;;0.60;;
39044;SDS011;52192;52.002;5.956;2023-07-31T08:35:34;0.65;;;0.43;;
39044;SDS011;52192;52.002;5.956;2023-07-31T08:38:01;0.32;;;0.32;;
39044;SDS011;52192;52.002;5.956;2023-07-31T08:40:27;0.57;;;0.57;;
39044;SDS011;52192;52.002;5.956;2023-07-31T08:42:54;0.90;;;0.80;;
39044;SDS011;52192;52.002;5.956;2023-07-31T08:45:27;0.98;;;0.85;;
39044;SDS011;52192;52.002;5.956;2023-07-31T08:47:53;0.40;;;0.40;;
39044;SDS011;52192;52.002;5.956;2023-07-31T08:50:20;0.60;;;0.60;;
39044;SDS011;52192;52.002;5.956;2023-07-31T08:52:47;0.60;;;0.50;;
39044;SDS011;52192;52.002;5.956;2023-07-31T08:55:14;0.95;;;0.70;;
39044;SDS011;52192;52.002;5.956;2023-07-31T08:57:40;0.95;;;0.65;;
39044;SDS011;52192;52.002;5.956;2023-07-31T09:00:08;0.65;;;0.63;;
39044;SDS011;52192;52.002;5.956;2023-07-31T09:02:41;1.02;;;0.57;;
39044;SDS011;52192;52.002;5.956;2023-07-31T09:05:13;1.00;;;0.85;;
39044;SDS011;52192;52.002;5.956;2023-07-31T09:07:40;0.57;;;0.45;;
39044;SDS011;52192;52.002;5.956;2023-07-31T09:10:11;1.70;;;0.93;;
39044;SDS011;52192;52.002;5.956;2023-07-31T09:12:36;0.82;;;0.60;;
39044;SDS011;52192;52.002;5.956;2023-07-31T09:15:04;1.02;;;0.65;;
39044;SDS011;52192;52.002;5.956;2023-07-31T09:17:34;1.10;;;0.85;;
39044;SDS011;52192;52.002;5.956;2023-07-31T09:22:44;0.93;;;0.52;;
39044;SDS011;52192;52.002;5.956;2023-07-31T09:25:17;1.95;;;0.57;;
39044;SDS011;52192;52.002;5.956;2023-07-31T09:27:54;0.77;;;0.63;;
39044;SDS011;52192;52.002;5.956;2023-07-31T09:30:20;2.10;;;0.70;;
39044;SDS011;52192;52.002;5.956;2023-07-31T09:32:47;0.50;;;0.50;;
39044;SDS011;52192;52.002;5.956;2023-07-31T09:35:21;1.10;;;0.77;;
39044;SDS011;52192;52.002;5.956;2023-07-31T09:38:13;1.13;;;1.02;;
39044;SDS011;52192;52.002;5.956;2023-07-31T09:40:41;1.20;;;1.05;;
39044;SDS011;52192;52.002;5.956;2023-07-31T09:43:11;1.17;;;0.60;;
39044;SDS011;52192;52.002;5.956;2023-07-31T09:45:38;1.05;;;0.80;;
39044;SDS011;52192;52.002;5.956;2023-07-31T09:48:12;1.67;;;1.10;;
39044;SDS011;52192;52.002;5.956;2023-07-31T09:50:46;1.58;;;1.38;;
39044;SDS011;52192;52.002;5.956;2023-07-31T09:53:14;1.13;;;1.02;;
39044;SDS011;52192;52.002;5.956;2023-07-31T09:55:41;1.60;;;1.10;;
39044;SDS011;52192;52.002;5.956;2023-07-31T09:58:11;1.65;;;1.02;;
39044;SDS011;52192;52.002;5.956;2023-07-31T10:00:38;1.08;;;0.98;;
39044;SDS011;52192;52.002;5.956;2023-07-31T10:03:05;3.55;;;1.55;;
39044;SDS011;52192;52.002;5.956;2023-07-31T10:05:35;3.30;;;1.00;;
39044;SDS011;52192;52.002;5.956;2023-07-31T10:08:06;1.02;;;0.90;;
39044;SDS011;52192;52.002;5.956;2023-07-31T10:10:35;1.92;;;1.45;;
39044;SDS011;52192;52.002;5.956;2023-07-31T10:13:01;1.60;;;1.35;;
39044;SDS011;52192;52.002;5.956;2023-07-31T10:15:28;1.50;;;1.40;;
39044;SDS011;52192;52.002;5.956;2023-07-31T10:17:55;4.75;;;1.92;;
39044;SDS011;52192;52.002;5.956;2023-07-31T10:20:21;2.47;;;1.40;;
39044;SDS011;52192;52.002;5.956;2023-07-31T10:22:47;4.03;;;1.52;;
39044;SDS011;52192;52.002;5.956;2023-07-31T10:25:15;2.38;;;1.65;;
39044;SDS011;52192;52.002;5.956;2023-07-31T10:27:42;2.55;;;1.85;;
39044;SDS011;52192;52.002;5.956;2023-07-31T10:30:11;5.05;;;2.85;;
39044;SDS011;52192;52.002;5.956;2023-07-31T10:32:38;2.78;;;2.00;;
39044;SDS011;52192;52.002;5.956;2023-07-31T10:35:05;2.47;;;1.88;;
39044;SDS011;52192;52.002;5.956;2023-07-31T10:37:38;1.90;;;1.63;;
39044;SDS011;52192;52.002;5.956;2023-07-31T10:40:09;1.48;;;1.38;;
39044;SDS011;52192;52.002;5.956;2023-07-31T10:42:44;5.70;;;1.75;;
39044;SDS011;52192;52.002;5.956;2023-07-31T10:45:23;3.80;;;2.60;;
39044;SDS011;52192;52.002;5.956;2023-07-31T10:48:06;2.85;;;1.77;;
39044;SDS011;52192;52.002;5.956;2023-07-31T10:50:37;1.98;;;1.65;;
39044;SDS011;52192;52.002;5.956;2023-07-31T10:53:10;2.40;;;1.80;;
39044;SDS011;52192;52.002;5.956;2023-07-31T10:55:56;2.53;;;1.70;;
39044;SDS011;52192;52.002;5.956;2023-07-31T10:58:24;5.82;;;2.25;;
39044;SDS011;52192;52.002;5.956;2023-07-31T11:00:50;3.22;;;1.90;;
39044;SDS011;52192;52.002;5.956;2023-07-31T11:03:24;1.98;;;1.50;;
39044;SDS011;52192;52.002;5.956;2023-07-31T11:08:19;2.40;;;1.95;;
39044;SDS011;52192;52.002;5.956;2023-07-31T11:10:48;3.28;;;1.63;;
39044;SDS011;52192;52.002;5.956;2023-07-31T11:13:15;3.72;;;1.90;;
39044;SDS011;52192;52.002;5.956;2023-07-31T11:15:41;1.38;;;1.27;;
39044;SDS011;52192;52.002;5.956;2023-07-31T11:18:06;3.15;;;1.52;;
39044;SDS011;52192;52.002;5.956;2023-07-31T11:20:33;2.38;;;1.60;;
39044;SDS011;52192;52.002;5.956;2023-07-31T11:23:01;7.00;;;1.90;;
39044;SDS011;52192;52.002;5.956;2023-07-31T11:25:28;2.45;;;2.10;;
39044;SDS011;52192;52.002;5.956;2023-07-31T11:27:55;2.05;;;1.65;;
39044;SDS011;52192;52.002;5.956;2023-07-31T11:30:22;4.32;;;1.70;;
39044;SDS011;52192;52.002;5.956;2023-07-31T11:32:48;3.15;;;1.88;;
39044;SDS011;52192;52.002;5.956;2023-07-31T11:35:16;2.58;;;1.80;;
39044;SDS011;52192;52.002;5.956;2023-07-31T11:37:42;2.15;;;1.67;;
39044;SDS011;52192;52.002;5.956;2023-07-31T11:40:09;1.30;;;1.20;;
39044;SDS011;52192;52.002;5.956;2023-07-31T11:42:35;2.88;;;1.92;;
39044;SDS011;52192;52.002;5.956;2023-07-31T11:45:04;2.20;;;2.00;;
39044;SDS011;52192;52.002;5.956;2023-07-31T11:47:34;1.67;;;1.27;;
39044;SDS011;52192;52.002;5.956;2023-07-31T11:50:02;1.92;;;1.25;;
39044;SDS011;52192;52.002;5.956;2023-07-31T11:52:36;1.77;;;1.35;;
39044;SDS011;52192;52.002;5.956;2023-07-31T11:55:05;2.13;;;1.70;;
39044;SDS011;52192;52.002;5.956;2023-07-31T11:57:34;1.95;;;1.50;;
39044;SDS011;52192;52.002;5.956;2023-07-31T12:00:01;3.67;;;1.77;;
39044;SDS011;52192;52.002;5.956;2023-07-31T12:02:28;3.63;;;1.73;;
39044;SDS011;52192;52.002;5.956;2023-07-31T12:04:54;3.20;;;1.60;;
39044;SDS011;52192;52.002;5.956;2023-07-31T12:07:19;3.92;;;1.15;;
39044;SDS011;52192;52.002;5.956;2023-07-31T12:09:52;2.20;;;1.27;;
39044;SDS011;52192;52.002;5.956;2023-07-31T12:12:22;1.50;;;1.40;;
39044;SDS011;52192;52.002;5.956;2023-07-31T12:14:48;2.58;;;1.75;;
39044;SDS011;52192;52.002;5.956;2023-07-31T12:17:17;1.75;;;1.33;;
39044;SDS011;52192;52.002;5.956;2023-07-31T12:19:45;2.08;;;1.88;;
39044;SDS011;52192;52.002;5.956;2023-07-31T12:22:12;1.58;;;1.48;;
39044;SDS011;52192;52.002;5.956;2023-07-31T12:24:42;2.20;;;1.45;;
39044;SDS011;52192;52.002;5.956;2023-07-31T12:27:15;1.85;;;1.33;;
39044;SDS011;52192;52.002;5.956;2023-07-31T12:29:42;1.45;;;1.10;;
39044;SDS011;52192;52.002;5.956;2023-07-31T12:32:23;2.92;;;1.63;;
39044;SDS011;52192;52.002;5.956;2023-07-31T12:34:50;3.67;;;1.60;;
39044;SDS011;52192;52.002;5.956;2023-07-31T12:37:17;2.03;;;1.52;;
39044;SDS011;52192;52.002;5.956;2023-07-31T12:39:43;1.55;;;1.45;;
39044;SDS011;52192;52.002;5.956;2023-07-31T12:42:09;4.07;;;1.63;;
39044;SDS011;52192;52.002;5.956;2023-07-31T12:44:34;2.22;;;1.55;;
39044;SDS011;52192;52.002;5.956;2023-07-31T12:47:00;3.15;;;1.10;;
39044;SDS011;52192;52.002;5.956;2023-07-31T12:49:25;1.60;;;1.50;;
39044;SDS011;52192;52.002;5.956;2023-07-31T12:51:51;1.83;;;1.33;;
39044;SDS011;52192;52.002;5.956;2023-07-31T12:54:18;0.95;;;0.95;;
39044;SDS011;52192;52.002;5.956;2023-07-31T12:56:44;1.75;;;1.50;;
39044;SDS011;52192;52.002;5.956;2023-07-31T12:59:10;2.92;;;1.92;;
39044;SDS011;52192;52.002;5.956;2023-07-31T13:01:35;1.90;;;1.02;;
39044;SDS011;52192;52.002;5.956;2023-07-31T13:04:01;2.60;;;1.80;;
39044;SDS011;52192;52.002;5.956;2023-07-31T13:06:27;1.52;;;1.00;;
39044;SDS011;52192;52.002;5.956;2023-07-31T13:08:53;1.85;;;1.60;;
39044;SDS011;52192;52.002;5.956;2023-07-31T13:11:18;1.65;;;1.35;;
39044;SDS011;52192;52.002;5.956;2023-07-31T13:13:44;2.17;;;1.60;;
39044;SDS011;52192;52.002;5.956;2023-07-31T13:16:10;1.95;;;1.73;;
39044;SDS011;52192;52.002;5.956;2023-07-31T13:18:35;3.38;;;1.95;;
39044;SDS011;52192;52.002;5.956;2023-07-31T13:21:01;3.97;;;1.90;;
39044;SDS011;52192;52.002;5.956;2023-07-31T13:23:27;3.08;;;2.05;;
39044;SDS011;52192;52.002;5.956;2023-07-31T13:25:52;3.55;;;2.22;;
39044;SDS011;52192;52.002;5.956;2023-07-31T13:28:18;2.63;;;1.90;;
39044;SDS011;52192;52.002;5.956;2023-07-31T13:30:44;1.83;;;1.20;;
39044;SDS011;52192;52.002;5.956;2023-07-31T13:33:11;2.58;;;1.60;;
39044;SDS011;52192;52.002;5.956;2023-07-31T13:35:36;1.58;;;1.13;;
39044;SDS011;52192;52.002;5.956;2023-07-31T13:38:02;2.10;;;1.40;;
39044;SDS011;52192;52.002;5.956;2023-07-31T13:40:28;5.85;;;1.95;;
39044;SDS011;52192;52.002;5.956;2023-07-31T13:42:53;2.55;;;1.65;;
39044;SDS011;52192;52.002;5.956;2023-07-31T13:45:20;1.85;;;1.70;;
39044;SDS011;52192;52.002;5.956;2023-07-31T13:47:46;2.53;;;1.42;;
39044;SDS011;52192;52.002;5.956;2023-07-31T13:50:11;4.72;;;1.45;;
39044;SDS011;52192;52.002;5.956;2023-07-31T13:52:37;2.00;;;1.30;;
39044;SDS011;52192;52.002;5.956;2023-07-31T13:55:03;2.00;;;1.42;;
39044;SDS011;52192;52.002;5.956;2023-07-31T13:57:29;1.30;;;1.20;;
39044;SDS011;52192;52.002;5.956;2023-07-31T13:59:54;3.05;;;1.60;;
39044;SDS011;52192;52.002;5.956;2023-07-31T14:02:20;2.85;;;1.42;;
39044;SDS011;52192;52.002;5.956;2023-07-31T14:04:46;2.05;;;1.70;;
39044;SDS011;52192;52.002;5.956;2023-07-31T14:07:11;2.85;;;1.55;;
39044;SDS011;52192;52.002;5.956;2023-07-31T14:09:37;4.35;;;1.77;;
39044;SDS011;52192;52.002;5.956;2023-07-31T14:12:03;2.97;;;1.80;;
39044;SDS011;52192;52.002;5.956;2023-07-31T14:14:29;1.83;;;1.23;;
39044;SDS011;52192;52.002;5.956;2023-07-31T14:16:54;2.08;;;1.30;;
39044;SDS011;52192;52.002;5.956;2023-07-31T14:19:20;1.85;;;1.27;;
39044;SDS011;52192;52.002;5.956;2023-07-31T14:21:46;3.40;;;1.63;;
39044;SDS011;52192;52.002;5.956;2023-07-31T14:24:11;2.13;;;0.98;;
39044;SDS011;52192;52.002;5.956;2023-07-31T14:26:37;1.85;;;1.58;;
39044;SDS011;52192;52.002;5.956;2023-07-31T14:29:03;2.33;;;1.27;;
39044;SDS011;52192;52.002;5.956;2023-07-31T14:31:28;2.47;;;1.58;;
39044;SDS011;52192;52.002;5.956;2023-07-31T14:33:54;3.25;;;1.92;;
39044;SDS011;52192;52.002;5.956;2023-07-31T14:36:20;3.05;;;1.63;;
39044;SDS011;52192;52.002;5.956;2023-07-31T14:38:45;2.33;;;1.70;;
39044;SDS011;52192;52.002;5.956;2023-07-31T14:41:11;2.03;;;1.70;;
39044;SDS011;52192;52.002;5.956;2023-07-31T14:43:36;1.60;;;1.35;;
39044;SDS011;52192;52.002;5.956;2023-07-31T14:46:02;2.17;;;1.45;;
39044;SDS011;52192;52.002;5.956;2023-07-31T14:48:28;3.25;;;1.55;;
39044;SDS011;52192;52.002;5.956;2023-07-31T14:50:54;1.92;;;1.48;;
39044;SDS011;52192;52.002;5.956;2023-07-31T14:53:20;4.45;;;1.90;;
39044;SDS011;52192;52.002;5.956;2023-07-31T14:55:46;1.83;;;1.55;;
39044;SDS011;52192;52.002;5.956;2023-07-31T14:58:12;1.48;;;1.13;;